LGIR

Heraklion International Nikos Kazantzakis Airport

Heraklion, Greece
TAF LGIR 202300Z 2100/2124 31016KT 9999 FEW025 TEMPO 2103/2116 31018G30KT SCT018 BKN030
Issued Valid From Valid To
Apr-20 @ 23:00 UTC
(5 hours ago)
Apr-21 @ 00:00 UTC
(4 hours ago)
Apr-22 @ 00:00 UTC
(in 20 hours)
Apr-21 @ 00:00 to Apr-22 @ 00:00
TAF LGIR 202300Z 2100/2124 31016KT 9999 FEW025
Wind Visibility Clouds
310° at 16 knots 10,000+ meters
  • Few at 2,500' AGL
Temporary Apr-21 @ 03:00 to Apr-21 @ 16:00
TEMPO 2103/2116 31018G30KT SCT018 BKN030
Wind Clouds
310° at 18 knots
 Gusting to 30 knots
  • Scattered at 1,800' AGL
  • Broken at 3,000' AGL
TAF LGIR 202300Z 2100/2124 31016KT 9999 FEW025 TEMPO 2103/2116 31018G30KT SCT018 BKN030
Issued Apr-20 @ 23:00 UTC
(5 hours ago)
Valid From Apr-21 @ 00:00 UTC
(4 hours ago)
Valid To Apr-22 @ 00:00 UTC
(in 20 hours)
Apr-21 @ 00:00 - Apr-22 @ 00:00
Wind Visibility
310° at 16 knots 10,000+ meters
Clouds
  • Few at 2,500' AGL
Temporary Apr-21 @ 03:00 - Apr-21 @ 16:00
Wind
310° at 18 knots
 Gusting to 30 knots
Clouds
  • Scattered at 1,800' AGL
  • Broken at 3,000' AGL